sensor_id;sensor_type;location;lat;lon;timestamp;P1;durP1;ratioP1;P2;durP2;ratioP2
5355;SDS011;70449;52.486;13.386;2023-07-13T00:00:21;4.30;;;2.00;;
5355;SDS011;70449;52.486;13.386;2023-07-13T00:02:49;9.73;;;2.97;;
5355;SDS011;70449;52.486;13.386;2023-07-13T00:05:18;5.90;;;3.00;;
5355;SDS011;70449;52.486;13.386;2023-07-13T00:07:45;5.80;;;3.33;;
5355;SDS011;70449;52.486;13.386;2023-07-13T00:10:13;3.20;;;2.27;;
5355;SDS011;70449;52.486;13.386;2023-07-13T00:12:40;3.23;;;2.60;;
5355;SDS011;70449;52.486;13.386;2023-07-13T00:15:13;4.30;;;2.83;;
5355;SDS011;70449;52.486;13.386;2023-07-13T00:17:46;6.73;;;2.70;;
5355;SDS011;70449;52.486;13.386;2023-07-13T00:20:13;6.63;;;2.90;;
5355;SDS011;70449;52.486;13.386;2023-07-13T00:22:40;4.60;;;2.90;;
5355;SDS011;70449;52.486;13.386;2023-07-13T00:25:09;5.30;;;2.60;;
5355;SDS011;70449;52.486;13.386;2023-07-13T00:27:38;4.40;;;2.60;;
5355;SDS011;70449;52.486;13.386;2023-07-13T00:30:05;5.40;;;3.00;;
5355;SDS011;70449;52.486;13.386;2023-07-13T00:32:35;4.47;;;2.27;;
5355;SDS011;70449;52.486;13.386;2023-07-13T00:35:04;4.40;;;2.73;;
5355;SDS011;70449;52.486;13.386;2023-07-13T00:37:32;5.90;;;2.83;;
5355;SDS011;70449;52.486;13.386;2023-07-13T00:40:00;11.90;;;2.80;;
5355;SDS011;70449;52.486;13.386;2023-07-13T00:42:28;5.23;;;2.47;;
5355;SDS011;70449;52.486;13.386;2023-07-13T00:45:06;3.70;;;2.70;;
5355;SDS011;70449;52.486;13.386;2023-07-13T00:48:17;7.03;;;2.70;;
5355;SDS011;70449;52.486;13.386;2023-07-13T00:50:48;3.07;;;2.27;;
5355;SDS011;70449;52.486;13.386;2023-07-13T00:53:22;4.03;;;2.83;;
5355;SDS011;70449;52.486;13.386;2023-07-13T00:55:52;6.53;;;2.50;;
5355;SDS011;70449;52.486;13.386;2023-07-13T00:58:21;3.80;;;2.57;;
5355;SDS011;70449;52.486;13.386;2023-07-13T01:00:49;5.53;;;2.10;;
5355;SDS011;70449;52.486;13.386;2023-07-13T01:03:19;5.60;;;2.70;;
5355;SDS011;70449;52.486;13.386;2023-07-13T01:05:46;8.73;;;2.40;;
5355;SDS011;70449;52.486;13.386;2023-07-13T01:08:15;7.77;;;2.63;;
5355;SDS011;70449;52.486;13.386;2023-07-13T01:10:50;5.63;;;2.70;;
5355;SDS011;70449;52.486;13.386;2023-07-13T01:13:19;2.77;;;2.40;;
5355;SDS011;70449;52.486;13.386;2023-07-13T01:15:47;13.53;;;2.83;;
5355;SDS011;70449;52.486;13.386;2023-07-13T01:18:17;8.00;;;2.60;;
5355;SDS011;70449;52.486;13.386;2023-07-13T01:20:54;12.20;;;2.73;;
5355;SDS011;70449;52.486;13.386;2023-07-13T01:23:22;7.90;;;2.70;;
5355;SDS011;70449;52.486;13.386;2023-07-13T01:25:51;6.40;;;2.30;;
5355;SDS011;70449;52.486;13.386;2023-07-13T01:28:20;3.63;;;2.20;;
5355;SDS011;70449;52.486;13.386;2023-07-13T01:30:52;9.13;;;2.77;;
5355;SDS011;70449;52.486;13.386;2023-07-13T01:33:21;6.60;;;3.30;;
5355;SDS011;70449;52.486;13.386;2023-07-13T01:35:49;12.47;;;2.87;;
5355;SDS011;70449;52.486;13.386;2023-07-13T01:38:23;6.03;;;2.40;;
5355;SDS011;70449;52.486;13.386;2023-07-13T01:40:51;8.50;;;3.00;;
5355;SDS011;70449;52.486;13.386;2023-07-13T01:43:18;9.23;;;2.60;;
5355;SDS011;70449;52.486;13.386;2023-07-13T01:45:46;15.20;;;3.00;;
5355;SDS011;70449;52.486;13.386;2023-07-13T01:48:13;4.20;;;2.83;;
5355;SDS011;70449;52.486;13.386;2023-07-13T01:50:41;4.17;;;2.90;;
5355;SDS011;70449;52.486;13.386;2023-07-13T01:53:09;6.97;;;2.70;;
5355;SDS011;70449;52.486;13.386;2023-07-13T01:55:37;4.10;;;2.60;;
5355;SDS011;70449;52.486;13.386;2023-07-13T01:58:04;6.90;;;3.10;;
5355;SDS011;70449;52.486;13.386;2023-07-13T02:00:32;7.60;;;2.73;;
5355;SDS011;70449;52.486;13.386;2023-07-13T02:02:59;9.87;;;3.53;;
5355;SDS011;70449;52.486;13.386;2023-07-13T02:05:27;3.37;;;2.87;;
5355;SDS011;70449;52.486;13.386;2023-07-13T02:07:54;8.27;;;3.07;;
5355;SDS011;70449;52.486;13.386;2023-07-13T02:10:23;6.43;;;3.17;;
5355;SDS011;70449;52.486;13.386;2023-07-13T02:12:50;4.40;;;2.87;;
5355;SDS011;70449;52.486;13.386;2023-07-13T02:15:17;6.80;;;2.73;;
5355;SDS011;70449;52.486;13.386;2023-07-13T02:17:45;4.70;;;2.67;;
5355;SDS011;70449;52.486;13.386;2023-07-13T02:20:13;10.93;;;2.50;;
5355;SDS011;70449;52.486;13.386;2023-07-13T02:22:40;5.30;;;3.20;;
5355;SDS011;70449;52.486;13.386;2023-07-13T02:25:08;8.00;;;2.90;;
5355;SDS011;70449;52.486;13.386;2023-07-13T02:27:36;5.00;;;2.77;;
5355;SDS011;70449;52.486;13.386;2023-07-13T02:30:04;4.90;;;3.53;;
5355;SDS011;70449;52.486;13.386;2023-07-13T02:32:32;5.90;;;3.00;;
5355;SDS011;70449;52.486;13.386;2023-07-13T02:35:00;6.90;;;3.60;;
5355;SDS011;70449;52.486;13.386;2023-07-13T02:37:30;7.10;;;3.50;;
5355;SDS011;70449;52.486;13.386;2023-07-13T02:39:58;7.40;;;3.37;;
5355;SDS011;70449;52.486;13.386;2023-07-13T02:42:25;6.73;;;3.57;;
5355;SDS011;70449;52.486;13.386;2023-07-13T02:44:54;5.27;;;3.40;;
5355;SDS011;70449;52.486;13.386;2023-07-13T02:47:21;6.47;;;3.27;;
5355;SDS011;70449;52.486;13.386;2023-07-13T02:49:49;5.40;;;3.10;;
5355;SDS011;70449;52.486;13.386;2023-07-13T02:52:17;8.13;;;3.47;;
5355;SDS011;70449;52.486;13.386;2023-07-13T02:54:44;5.43;;;2.83;;
5355;SDS011;70449;52.486;13.386;2023-07-13T02:57:12;5.67;;;3.23;;
5355;SDS011;70449;52.486;13.386;2023-07-13T02:59:39;4.10;;;3.07;;
5355;SDS011;70449;52.486;13.386;2023-07-13T03:02:08;9.97;;;3.77;;
5355;SDS011;70449;52.486;13.386;2023-07-13T03:04:35;4.37;;;2.80;;
5355;SDS011;70449;52.486;13.386;2023-07-13T03:07:03;20.73;;;3.37;;
5355;SDS011;70449;52.486;13.386;2023-07-13T03:09:32;10.43;;;2.83;;
5355;SDS011;70449;52.486;13.386;2023-07-13T03:12:01;2.80;;;2.40;;
5355;SDS011;70449;52.486;13.386;2023-07-13T03:14:28;7.13;;;2.93;;
5355;SDS011;70449;52.486;13.386;2023-07-13T03:16:57;9.20;;;3.57;;
5355;SDS011;70449;52.486;13.386;2023-07-13T03:19:25;6.30;;;2.77;;
5355;SDS011;70449;52.486;13.386;2023-07-13T03:21:53;5.90;;;3.00;;
5355;SDS011;70449;52.486;13.386;2023-07-13T03:24:20;4.77;;;2.67;;
5355;SDS011;70449;52.486;13.386;2023-07-13T03:26:50;8.10;;;3.00;;
5355;SDS011;70449;52.486;13.386;2023-07-13T03:29:18;19.83;;;3.43;;
5355;SDS011;70449;52.486;13.386;2023-07-13T03:31:45;7.13;;;3.10;;
5355;SDS011;70449;52.486;13.386;2023-07-13T03:34:12;3.30;;;3.00;;
5355;SDS011;70449;52.486;13.386;2023-07-13T03:36:41;6.53;;;3.20;;
5355;SDS011;70449;52.486;13.386;2023-07-13T03:39:08;9.27;;;2.93;;
5355;SDS011;70449;52.486;13.386;2023-07-13T03:41:36;7.67;;;3.73;;
5355;SDS011;70449;52.486;13.386;2023-07-13T03:44:03;5.97;;;3.37;;
5355;SDS011;70449;52.486;13.386;2023-07-13T03:46:31;4.30;;;3.13;;
5355;SDS011;70449;52.486;13.386;2023-07-13T03:48:58;11.60;;;3.20;;
5355;SDS011;70449;52.486;13.386;2023-07-13T03:51:26;11.70;;;3.20;;
5355;SDS011;70449;52.486;13.386;2023-07-13T03:53:55;7.13;;;3.57;;
5355;SDS011;70449;52.486;13.386;2023-07-13T03:56:22;12.67;;;3.27;;
5355;SDS011;70449;52.486;13.386;2023-07-13T03:58:50;12.30;;;2.83;;
5355;SDS011;70449;52.486;13.386;2023-07-13T04:01:18;4.97;;;2.90;;
5355;SDS011;70449;52.486;13.386;2023-07-13T04:03:47;5.73;;;2.80;;
5355;SDS011;70449;52.486;13.386;2023-07-13T04:06:15;2.77;;;2.57;;
5355;SDS011;70449;52.486;13.386;2023-07-13T04:08:46;4.43;;;2.60;;
5355;SDS011;70449;52.486;13.386;2023-07-13T04:11:17;4.70;;;2.57;;
5355;SDS011;70449;52.486;13.386;2023-07-13T04:13:46;5.27;;;2.80;;
5355;SDS011;70449;52.486;13.386;2023-07-13T04:16:14;3.83;;;2.40;;
5355;SDS011;70449;52.486;13.386;2023-07-13T04:18:43;10.90;;;3.50;;
5355;SDS011;70449;52.486;13.386;2023-07-13T04:21:12;3.77;;;2.53;;
5355;SDS011;70449;52.486;13.386;2023-07-13T04:23:40;7.53;;;2.93;;
5355;SDS011;70449;52.486;13.386;2023-07-13T04:26:07;6.73;;;2.70;;
5355;SDS011;70449;52.486;13.386;2023-07-13T04:28:36;5.87;;;2.60;;
5355;SDS011;70449;52.486;13.386;2023-07-13T04:31:04;3.47;;;2.93;;
5355;SDS011;70449;52.486;13.386;2023-07-13T04:33:31;3.90;;;2.47;;
5355;SDS011;70449;52.486;13.386;2023-07-13T04:35:59;6.33;;;2.80;;
5355;SDS011;70449;52.486;13.386;2023-07-13T04:38:27;9.20;;;3.13;;
5355;SDS011;70449;52.486;13.386;2023-07-13T04:40:57;9.40;;;2.90;;
5355;SDS011;70449;52.486;13.386;2023-07-13T04:43:28;5.10;;;2.67;;
5355;SDS011;70449;52.486;13.386;2023-07-13T04:46:02;4.40;;;2.57;;
5355;SDS011;70449;52.486;13.386;2023-07-13T04:48:31;4.97;;;2.70;;
5355;SDS011;70449;52.486;13.386;2023-07-13T04:50:59;3.73;;;2.70;;
5355;SDS011;70449;52.486;13.386;2023-07-13T04:53:27;13.07;;;2.63;;
5355;SDS011;70449;52.486;13.386;2023-07-13T04:55:56;4.20;;;2.93;;
5355;SDS011;70449;52.486;13.386;2023-07-13T04:58:24;4.73;;;2.50;;
5355;SDS011;70449;52.486;13.386;2023-07-13T05:00:52;8.67;;;5.00;;
5355;SDS011;70449;52.486;13.386;2023-07-13T05:03:26;3.83;;;2.43;;
5355;SDS011;70449;52.486;13.386;2023-07-13T05:05:57;8.80;;;4.00;;
5355;SDS011;70449;52.486;13.386;2023-07-13T05:08:26;4.93;;;2.57;;
5355;SDS011;70449;52.486;13.386;2023-07-13T05:10:53;4.10;;;2.63;;
5355;SDS011;70449;52.486;13.386;2023-07-13T05:13:21;5.67;;;2.50;;
5355;SDS011;70449;52.486;13.386;2023-07-13T05:15:55;8.53;;;2.50;;
5355;SDS011;70449;52.486;13.386;2023-07-13T05:18:23;5.07;;;2.70;;
5355;SDS011;70449;52.486;13.386;2023-07-13T05:21:00;5.67;;;2.97;;
5355;SDS011;70449;52.486;13.386;2023-07-13T05:23:29;8.93;;;2.80;;
5355;SDS011;70449;52.486;13.386;2023-07-13T05:25:58;10.43;;;3.00;;
5355;SDS011;70449;52.486;13.386;2023-07-13T05:28:26;13.37;;;3.43;;
5355;SDS011;70449;52.486;13.386;2023-07-13T05:30:54;3.50;;;2.40;;
5355;SDS011;70449;52.486;13.386;2023-07-13T05:33:21;7.47;;;3.60;;
5355;SDS011;70449;52.486;13.386;2023-07-13T05:35:49;4.87;;;2.47;;
5355;SDS011;70449;52.486;13.386;2023-07-13T05:38:18;6.60;;;2.53;;
5355;SDS011;70449;52.486;13.386;2023-07-13T05:40:46;3.53;;;2.43;;
5355;SDS011;70449;52.486;13.386;2023-07-13T05:43:13;11.40;;;3.00;;
5355;SDS011;70449;52.486;13.386;2023-07-13T05:45:41;5.20;;;2.47;;
5355;SDS011;70449;52.486;13.386;2023-07-13T05:48:08;5.57;;;2.73;;
5355;SDS011;70449;52.486;13.386;2023-07-13T05:50:35;5.37;;;2.70;;
5355;SDS011;70449;52.486;13.386;2023-07-13T05:53:03;13.70;;;3.37;;
5355;SDS011;70449;52.486;13.386;2023-07-13T05:55:32;4.27;;;2.10;;
5355;SDS011;70449;52.486;13.386;2023-07-13T05:58:00;6.53;;;2.73;;
5355;SDS011;70449;52.486;13.386;2023-07-13T06:00:28;5.27;;;2.80;;
5355;SDS011;70449;52.486;13.386;2023-07-13T06:02:58;13.90;;;2.30;;
5355;SDS011;70449;52.486;13.386;2023-07-13T06:05:26;7.73;;;2.47;;
5355;SDS011;70449;52.486;13.386;2023-07-13T06:07:54;8.17;;;2.53;;
5355;SDS011;70449;52.486;13.386;2023-07-13T06:10:21;4.40;;;2.40;;
5355;SDS011;70449;52.486;13.386;2023-07-13T06:12:50;7.03;;;2.50;;
5355;SDS011;70449;52.486;13.386;2023-07-13T06:15:18;5.13;;;2.40;;
5355;SDS011;70449;52.486;13.386;2023-07-13T06:17:48;4.50;;;2.63;;
5355;SDS011;70449;52.486;13.386;2023-07-13T06:20:15;6.20;;;2.40;;
5355;SDS011;70449;52.486;13.386;2023-07-13T06:22:42;6.83;;;2.30;;
5355;SDS011;70449;52.486;13.386;2023-07-13T06:25:10;5.20;;;3.73;;
5355;SDS011;70449;52.486;13.386;2023-07-13T06:27:37;4.17;;;2.37;;
5355;SDS011;70449;52.486;13.386;2023-07-13T06:30:06;5.10;;;2.80;;
5355;SDS011;70449;52.486;13.386;2023-07-13T06:32:35;9.20;;;2.60;;
5355;SDS011;70449;52.486;13.386;2023-07-13T06:35:03;7.50;;;2.80;;
5355;SDS011;70449;52.486;13.386;2023-07-13T06:37:31;6.67;;;2.77;;
5355;SDS011;70449;52.486;13.386;2023-07-13T06:39:59;5.83;;;2.87;;
5355;SDS011;70449;52.486;13.386;2023-07-13T06:42:26;3.03;;;2.40;;
5355;SDS011;70449;52.486;13.386;2023-07-13T06:44:53;5.43;;;2.33;;
5355;SDS011;70449;52.486;13.386;2023-07-13T06:47:22;10.40;;;2.97;;
5355;SDS011;70449;52.486;13.386;2023-07-13T06:49:49;5.13;;;2.90;;
5355;SDS011;70449;52.486;13.386;2023-07-13T06:52:16;6.27;;;2.03;;
5355;SDS011;70449;52.486;13.386;2023-07-13T06:54:44;6.90;;;2.40;;
5355;SDS011;70449;52.486;13.386;2023-07-13T06:57:11;8.13;;;2.30;;
5355;SDS011;70449;52.486;13.386;2023-07-13T06:59:38;12.67;;;2.27;;
5355;SDS011;70449;52.486;13.386;2023-07-13T07:02:05;17.03;;;2.47;;
5355;SDS011;70449;52.486;13.386;2023-07-13T07:04:36;3.20;;;1.90;;
5355;SDS011;70449;52.486;13.386;2023-07-13T07:07:03;4.57;;;2.27;;
5355;SDS011;70449;52.486;13.386;2023-07-13T07:09:31;3.90;;;2.47;;
5355;SDS011;70449;52.486;13.386;2023-07-13T07:11:58;7.53;;;2.43;;
5355;SDS011;70449;52.486;13.386;2023-07-13T07:14:25;5.30;;;2.17;;
5355;SDS011;70449;52.486;13.386;2023-07-13T07:16:52;5.47;;;2.50;;
5355;SDS011;70449;52.486;13.386;2023-07-13T07:19:20;2.90;;;2.00;;
5355;SDS011;70449;52.486;13.386;2023-07-13T07:21:49;6.37;;;2.23;;
5355;SDS011;70449;52.486;13.386;2023-07-13T07:24:16;8.43;;;2.00;;
5355;SDS011;70449;52.486;13.386;2023-07-13T07:26:43;6.20;;;1.80;;
5355;SDS011;70449;52.486;13.386;2023-07-13T07:29:11;7.50;;;2.00;;
5355;SDS011;70449;52.486;13.386;2023-07-13T07:31:38;3.67;;;1.90;;
5355;SDS011;70449;52.486;13.386;2023-07-13T07:34:05;6.87;;;2.30;;
5355;SDS011;70449;52.486;13.386;2023-07-13T07:36:33;2.50;;;1.83;;
5355;SDS011;70449;52.486;13.386;2023-07-13T07:39:02;5.67;;;1.93;;
5355;SDS011;70449;52.486;13.386;2023-07-13T07:41:30;4.37;;;1.80;;
5355;SDS011;70449;52.486;13.386;2023-07-13T07:44:02;5.53;;;1.67;;
5355;SDS011;70449;52.486;13.386;2023-07-13T07:46:40;4.70;;;2.00;;
5355;SDS011;70449;52.486;13.386;2023-07-13T07:49:07;8.23;;;2.00;;
5355;SDS011;70449;52.486;13.386;2023-07-13T07:51:34;1.90;;;1.70;;
5355;SDS011;70449;52.486;13.386;2023-07-13T07:54:03;5.93;;;2.30;;
5355;SDS011;70449;52.486;13.386;2023-07-13T07:56:31;7.13;;;2.30;;
5355;SDS011;70449;52.486;13.386;2023-07-13T07:58:59;4.40;;;1.80;;
5355;SDS011;70449;52.486;13.386;2023-07-13T08:01:26;4.47;;;2.30;;
5355;SDS011;70449;52.486;13.386;2023-07-13T08:03:53;3.30;;;1.90;;
5355;SDS011;70449;52.486;13.386;2023-07-13T08:06:21;2.67;;;1.93;;
5355;SDS011;70449;52.486;13.386;2023-07-13T08:08:48;5.53;;;2.23;;
5355;SDS011;70449;52.486;13.386;2023-07-13T08:11:17;4.13;;;2.00;;
5355;SDS011;70449;52.486;13.386;2023-07-13T08:13:44;7.00;;;2.10;;
5355;SDS011;70449;52.486;13.386;2023-07-13T08:16:12;3.37;;;1.97;;
5355;SDS011;70449;52.486;13.386;2023-07-13T08:18:39;4.67;;;2.30;;
5355;SDS011;70449;52.486;13.386;2023-07-13T08:21:07;3.53;;;2.00;;
5355;SDS011;70449;52.486;13.386;2023-07-13T08:23:35;11.43;;;1.80;;
5355;SDS011;70449;52.486;13.386;2023-07-13T08:26:03;3.13;;;2.00;;
5355;SDS011;70449;52.486;13.386;2023-07-13T08:28:32;4.87;;;2.00;;
5355;SDS011;70449;52.486;13.386;2023-07-13T08:31:00;8.90;;;2.43;;
5355;SDS011;70449;52.486;13.386;2023-07-13T08:33:28;4.03;;;1.70;;
5355;SDS011;70449;52.486;13.386;2023-07-13T08:35:55;5.03;;;2.33;;
5355;SDS011;70449;52.486;13.386;2023-07-13T08:38:23;6.10;;;2.43;;
5355;SDS011;70449;52.486;13.386;2023-07-13T08:40:51;2.20;;;2.00;;
5355;SDS011;70449;52.486;13.386;2023-07-13T08:43:23;3.70;;;2.27;;
5355;SDS011;70449;52.486;13.386;2023-07-13T08:45:57;2.90;;;1.97;;
5355;SDS011;70449;52.486;13.386;2023-07-13T08:48:35;3.73;;;2.20;;
5355;SDS011;70449;52.486;13.386;2023-07-13T08:51:11;4.40;;;1.97;;
5355;SDS011;70449;52.486;13.386;2023-07-13T08:53:54;2.17;;;1.97;;
5355;SDS011;70449;52.486;13.386;2023-07-13T08:56:27;7.47;;;1.97;;
5355;SDS011;70449;52.486;13.386;2023-07-13T08:58:57;7.93;;;2.10;;
5355;SDS011;70449;52.486;13.386;2023-07-13T09:01:32;7.33;;;1.83;;
5355;SDS011;70449;52.486;13.386;2023-07-13T09:04:14;3.37;;;1.80;;
5355;SDS011;70449;52.486;13.386;2023-07-13T09:06:48;4.03;;;2.13;;
5355;SDS011;70449;52.486;13.386;2023-07-13T09:09:29;2.70;;;1.80;;
5355;SDS011;70449;52.486;13.386;2023-07-13T09:12:14;4.40;;;1.57;;
5355;SDS011;70449;52.486;13.386;2023-07-13T09:14:50;2.03;;;1.23;;
5355;SDS011;70449;52.486;13.386;2023-07-13T09:17:24;7.87;;;2.07;;
5355;SDS011;70449;52.486;13.386;2023-07-13T09:19:56;2.80;;;1.70;;
5355;SDS011;70449;52.486;13.386;2023-07-13T09:22:30;2.33;;;1.60;;
5355;SDS011;70449;52.486;13.386;2023-07-13T09:25:04;3.37;;;1.83;;
5355;SDS011;70449;52.486;13.386;2023-07-13T09:27:44;2.70;;;1.53;;
5355;SDS011;70449;52.486;13.386;2023-07-13T09:30:24;3.77;;;1.50;;
5355;SDS011;70449;52.486;13.386;2023-07-13T09:33:01;7.00;;;1.93;;
5355;SDS011;70449;52.486;13.386;2023-07-13T09:35:29;4.43;;;2.10;;
5355;SDS011;70449;52.486;13.386;2023-07-13T09:37:58;3.15;;;1.90;;
5355;SDS011;70449;52.486;13.386;2023-07-13T09:40:40;10.80;;;2.10;;
5355;SDS011;70449;52.486;13.386;2023-07-13T09:43:25;8.60;;;2.43;;
5355;SDS011;70449;52.486;13.386;2023-07-13T09:45:54;4.57;;;2.47;;
5355;SDS011;70449;52.486;13.386;2023-07-13T09:48:23;12.20;;;3.07;;
5355;SDS011;70449;52.486;13.386;2023-07-13T09:50:54;7.97;;;2.70;;
5355;SDS011;70449;52.486;13.386;2023-07-13T09:53:22;3.63;;;2.47;;
5355;SDS011;70449;52.486;13.386;2023-07-13T09:55:50;6.53;;;2.67;;
5355;SDS011;70449;52.486;13.386;2023-07-13T09:58:18;4.20;;;2.47;;
5355;SDS011;70449;52.486;13.386;2023-07-13T10:00:54;7.40;;;3.33;;
5355;SDS011;70449;52.486;13.386;2023-07-13T10:03:25;3.37;;;3.07;;
5355;SDS011;70449;52.486;13.386;2023-07-13T10:06:03;5.10;;;3.30;;
5355;SDS011;70449;52.486;13.386;2023-07-13T10:08:38;19.83;;;4.10;;
5355;SDS011;70449;52.486;13.386;2023-07-13T10:11:08;7.60;;;3.83;;
5355;SDS011;70449;52.486;13.386;2023-07-13T10:13:40;15.27;;;3.37;;
5355;SDS011;70449;52.486;13.386;2023-07-13T10:16:11;5.90;;;2.60;;
5355;SDS011;70449;52.486;13.386;2023-07-13T10:18:42;8.70;;;2.83;;
5355;SDS011;70449;52.486;13.386;2023-07-13T10:21:14;6.60;;;2.90;;
5355;SDS011;70449;52.486;13.386;2023-07-13T10:23:45;9.60;;;3.20;;
5355;SDS011;70449;52.486;13.386;2023-07-13T10:26:20;3.88;;;2.63;;
5355;SDS011;70449;52.486;13.386;2023-07-13T10:28:52;4.20;;;2.90;;
5355;SDS011;70449;52.486;13.386;2023-07-13T10:31:23;5.93;;;2.65;;
5355;SDS011;70449;52.486;13.386;2023-07-13T10:33:52;7.63;;;3.25;;
5355;SDS011;70449;52.486;13.386;2023-07-13T10:36:27;5.57;;;2.60;;
5355;SDS011;70449;52.486;13.386;2023-07-13T10:39:00;7.57;;;3.50;;
5355;SDS011;70449;52.486;13.386;2023-07-13T10:41:32;7.82;;;2.70;;
5355;SDS011;70449;52.486;13.386;2023-07-13T10:44:05;10.48;;;2.40;;
5355;SDS011;70449;52.486;13.386;2023-07-13T10:46:43;7.80;;;2.78;;
5355;SDS011;70449;52.486;13.386;2023-07-13T10:49:12;7.15;;;3.38;;
5355;SDS011;70449;52.486;13.386;2023-07-13T10:51:40;5.22;;;2.80;;
5355;SDS011;70449;52.486;13.386;2023-07-13T10:54:14;5.07;;;2.63;;
5355;SDS011;70449;52.486;13.386;2023-07-13T10:56:49;4.97;;;2.67;;
5355;SDS011;70449;52.486;13.386;2023-07-13T10:59:34;8.90;;;2.50;;
5355;SDS011;70449;52.486;13.386;2023-07-13T11:02:09;10.07;;;2.38;;
5355;SDS011;70449;52.486;13.386;2023-07-13T11:04:44;4.38;;;2.50;;
5355;SDS011;70449;52.486;13.386;2023-07-13T11:07:18;5.10;;;2.60;;
5355;SDS011;70449;52.486;13.386;2023-07-13T11:09:49;5.75;;;2.70;;
5355;SDS011;70449;52.486;13.386;2023-07-13T11:12:48;10.80;;;3.03;;
5355;SDS011;70449;52.486;13.386;2023-07-13T11:15:30;5.30;;;2.25;;
5355;SDS011;70449;52.486;13.386;2023-07-13T11:18:19;14.35;;;3.08;;
5355;SDS011;70449;52.486;13.386;2023-07-13T11:20:49;4.32;;;2.47;;
5355;SDS011;70449;52.486;13.386;2023-07-13T11:23:18;5.22;;;2.67;;
5355;SDS011;70449;52.486;13.386;2023-07-13T11:25:56;5.18;;;2.80;;
5355;SDS011;70449;52.486;13.386;2023-07-13T11:28:25;4.63;;;2.80;;
5355;SDS011;70449;52.486;13.386;2023-07-13T11:31:00;4.38;;;2.22;;
5355;SDS011;70449;52.486;13.386;2023-07-13T11:36:42;5.40;;;2.40;;
5355;SDS011;70449;52.486;13.386;2023-07-13T11:39:17;6.40;;;3.22;;
5355;SDS011;70449;52.486;13.386;2023-07-13T11:41:50;7.25;;;2.95;;
5355;SDS011;70449;52.486;13.386;2023-07-13T11:44:21;7.03;;;2.20;;
5355;SDS011;70449;52.486;13.386;2023-07-13T11:46:51;5.97;;;2.63;;
5355;SDS011;70449;52.486;13.386;2023-07-13T11:49:21;5.45;;;3.05;;
5355;SDS011;70449;52.486;13.386;2023-07-13T11:51:53;6.57;;;2.70;;
5355;SDS011;70449;52.486;13.386;2023-07-13T11:54:23;5.57;;;2.50;;
5355;SDS011;70449;52.486;13.386;2023-07-13T11:56:55;6.13;;;2.75;;
5355;SDS011;70449;52.486;13.386;2023-07-13T11:59:26;2.63;;;2.20;;
5355;SDS011;70449;52.486;13.386;2023-07-13T12:01:55;3.58;;;2.03;;
5355;SDS011;70449;52.486;13.386;2023-07-13T12:04:24;5.05;;;2.10;;
5355;SDS011;70449;52.486;13.386;2023-07-13T12:06:58;8.85;;;2.30;;
5355;SDS011;70449;52.486;13.386;2023-07-13T12:09:34;7.07;;;2.60;;
5355;SDS011;70449;52.486;13.386;2023-07-13T12:12:02;5.28;;;2.45;;
5355;SDS011;70449;52.486;13.386;2023-07-13T12:14:36;5.40;;;2.33;;
5355;SDS011;70449;52.486;13.386;2023-07-13T12:17:04;7.82;;;2.85;;
5355;SDS011;70449;52.486;13.386;2023-07-13T12:19:39;2.58;;;2.20;;
5355;SDS011;70449;52.486;13.386;2023-07-13T12:22:10;5.03;;;2.60;;
5355;SDS011;70449;52.486;13.386;2023-07-13T12:24:40;8.65;;;3.08;;
5355;SDS011;70449;52.486;13.386;2023-07-13T12:27:13;5.43;;;2.53;;
5355;SDS011;70449;52.486;13.386;2023-07-13T12:29:52;17.63;;;2.58;;
5355;SDS011;70449;52.486;13.386;2023-07-13T12:32:25;6.97;;;2.30;;
5355;SDS011;70449;52.486;13.386;2023-07-13T12:34:57;5.38;;;2.33;;
5355;SDS011;70449;52.486;13.386;2023-07-13T12:37:42;9.95;;;2.30;;
5355;SDS011;70449;52.486;13.386;2023-07-13T12:40:13;4.28;;;2.20;;
5355;SDS011;70449;52.486;13.386;2023-07-13T12:42:43;4.82;;;2.60;;
5355;SDS011;70449;52.486;13.386;2023-07-13T12:45:17;7.07;;;2.60;;
5355;SDS011;70449;52.486;13.386;2023-07-13T12:47:47;11.27;;;2.38;;
5355;SDS011;70449;52.486;13.386;2023-07-13T12:50:21;6.95;;;1.95;;
5355;SDS011;70449;52.486;13.386;2023-07-13T12:52:53;4.03;;;1.75;;
5355;SDS011;70449;52.486;13.386;2023-07-13T12:55:23;4.88;;;2.13;;
5355;SDS011;70449;52.486;13.386;2023-07-13T12:57:51;3.53;;;2.10;;
5355;SDS011;70449;52.486;13.386;2023-07-13T13:00:22;6.75;;;2.40;;
5355;SDS011;70449;52.486;13.386;2023-07-13T13:02:53;5.22;;;2.20;;
5355;SDS011;70449;52.486;13.386;2023-07-13T13:05:24;3.33;;;2.20;;
5355;SDS011;70449;52.486;13.386;2023-07-13T13:07:54;1.75;;;1.63;;
5355;SDS011;70449;52.486;13.386;2023-07-13T13:10:21;3.53;;;1.60;;
5355;SDS011;70449;52.486;13.386;2023-07-13T13:12:49;7.05;;;2.03;;
5355;SDS011;70449;52.486;13.386;2023-07-13T13:15:17;3.83;;;2.13;;
5355;SDS011;70449;52.486;13.386;2023-07-13T13:17:46;7.45;;;2.45;;
5355;SDS011;70449;52.486;13.386;2023-07-13T13:20:14;3.45;;;1.67;;
5355;SDS011;70449;52.486;13.386;2023-07-13T13:22:43;5.55;;;2.22;;
5355;SDS011;70449;52.486;13.386;2023-07-13T13:25:11;3.95;;;2.17;;
5355;SDS011;70449;52.486;13.386;2023-07-13T13:27:40;7.65;;;2.15;;
5355;SDS011;70449;52.486;13.386;2023-07-13T13:30:10;6.30;;;2.08;;
5355;SDS011;70449;52.486;13.386;2023-07-13T13:32:39;4.03;;;1.95;;
5355;SDS011;70449;52.486;13.386;2023-07-13T13:35:12;4.20;;;1.80;;
5355;SDS011;70449;52.486;13.386;2023-07-13T13:37:43;4.72;;;2.40;;
5355;SDS011;70449;52.486;13.386;2023-07-13T13:40:17;4.30;;;1.40;;
5355;SDS011;70449;52.486;13.386;2023-07-13T13:42:48;4.25;;;1.80;;
5355;SDS011;70449;52.486;13.386;2023-07-13T13:45:16;4.10;;;1.40;;
5355;SDS011;70449;52.486;13.386;2023-07-13T13:47:45;4.13;;;2.10;;
5355;SDS011;70449;52.486;13.386;2023-07-13T13:50:13;4.85;;;2.03;;
5355;SDS011;70449;52.486;13.386;2023-07-13T13:52:44;9.90;;;2.10;;
5355;SDS011;70449;52.486;13.386;2023-07-13T13:55:13;5.03;;;1.80;;
5355;SDS011;70449;52.486;13.386;2023-07-13T13:57:43;4.57;;;1.60;;
5355;SDS011;70449;52.486;13.386;2023-07-13T14:00:11;5.47;;;1.90;;
5355;SDS011;70449;52.486;13.386;2023-07-13T14:02:42;7.57;;;1.90;;
5355;SDS011;70449;52.486;13.386;2023-07-13T14:05:15;2.47;;;1.60;;
5355;SDS011;70449;52.486;13.386;2023-07-13T14:07:47;4.20;;;1.98;;
5355;SDS011;70449;52.486;13.386;2023-07-13T14:10:16;3.28;;;1.63;;
5355;SDS011;70449;52.486;13.386;2023-07-13T14:12:47;3.38;;;1.73;;
5355;SDS011;70449;52.486;13.386;2023-07-13T14:15:20;2.65;;;1.50;;
5355;SDS011;70449;52.486;13.386;2023-07-13T14:17:50;3.13;;;1.45;;
5355;SDS011;70449;52.486;13.386;2023-07-13T14:20:18;5.35;;;1.73;;
5355;SDS011;70449;52.486;13.386;2023-07-13T14:22:47;6.85;;;1.88;;
5355;SDS011;70449;52.486;13.386;2023-07-13T14:25:15;11.55;;;1.50;;
5355;SDS011;70449;52.486;13.386;2023-07-13T14:27:44;3.03;;;1.80;;
5355;SDS011;70449;52.486;13.386;2023-07-13T14:30:16;3.00;;;1.60;;
5355;SDS011;70449;52.486;13.386;2023-07-13T14:32:46;9.00;;;2.28;;
5355;SDS011;70449;52.486;13.386;2023-07-13T14:35:15;3.78;;;1.85;;
5355;SDS011;70449;52.486;13.386;2023-07-13T14:37:48;3.80;;;1.80;;
5355;SDS011;70449;52.486;13.386;2023-07-13T14:40:17;2.28;;;1.30;;
5355;SDS011;70449;52.486;13.386;2023-07-13T14:42:52;3.05;;;1.65;;
5355;SDS011;70449;52.486;13.386;2023-07-13T14:45:20;5.63;;;1.60;;
5355;SDS011;70449;52.486;13.386;2023-07-13T14:47:50;2.67;;;1.67;;
5355;SDS011;70449;52.486;13.386;2023-07-13T14:50:22;5.60;;;1.80;;
5355;SDS011;70449;52.486;13.386;2023-07-13T14:52:55;3.60;;;1.50;;
5355;SDS011;70449;52.486;13.386;2023-07-13T14:55:23;2.13;;;1.38;;
5355;SDS011;70449;52.486;13.386;2023-07-13T14:57:53;9.18;;;1.90;;
5355;SDS011;70449;52.486;13.386;2023-07-13T15:00:22;6.40;;;2.22;;
5355;SDS011;70449;52.486;13.386;2023-07-13T15:02:52;3.47;;;1.42;;
5355;SDS011;70449;52.486;13.386;2023-07-13T15:05:23;2.95;;;1.90;;